createdAt,value
2019-01-04T00:01:33.072Z,47.37
2019-01-04T00:04:08.620Z,42.20
2019-01-04T00:06:38.338Z,44.63
2019-01-04T00:09:10.960Z,45.70
2019-01-04T00:11:45.439Z,42.73
2019-01-04T00:14:12.726Z,38.20
2019-01-04T00:16:47.116Z,47.95
2019-01-04T00:19:21.686Z,49.73
2019-01-04T00:21:48.792Z,39.60
2019-01-04T00:24:21.703Z,41.25
2019-01-04T00:26:51.492Z,50.00
2019-01-04T00:29:24.311Z,39.58
2019-01-04T00:31:56.968Z,41.97
2019-01-04T00:34:26.839Z,40.93
2019-01-04T00:36:58.689Z,53.08
2019-01-04T00:39:28.501Z,49.33
2019-01-04T00:42:02.529Z,51.20
2019-01-04T00:44:35.404Z,45.53
2019-01-04T00:47:08.625Z,45.65
2019-01-04T00:49:38.499Z,46.37
2019-01-04T00:52:11.162Z,37.53
2019-01-04T00:54:51.085Z,46.40
2019-01-04T00:57:48.110Z,38.50
2019-01-04T01:00:57.033Z,36.80
2019-01-04T01:03:59.337Z,35.67
2019-01-04T01:07:09.032Z,37.20
2019-01-04T01:10:21.918Z,39.33
2019-01-04T01:13:37.423Z,37.58
2019-01-04T01:17:00.302Z,32.33
2019-01-04T01:20:11.793Z,34.70
2019-01-04T01:23:20.628Z,36.88
2019-01-04T01:26:45.918Z,40.70
2019-01-04T01:30:00.668Z,42.55
2019-01-04T01:33:11.382Z,41.00
2019-01-04T01:36:11.741Z,39.98
2019-01-04T01:39:14.422Z,45.12
2019-01-04T01:42:16.571Z,42.90
2019-01-04T01:45:20.991Z,36.00
2019-01-04T01:48:21.115Z,43.38
2019-01-04T01:51:33.935Z,45.52
2019-01-04T01:54:03.793Z,41.98
2019-01-04T01:56:34.876Z,51.65
2019-01-04T01:59:04.682Z,48.00
2019-01-04T02:01:37.558Z,44.55
2019-01-04T02:04:10.311Z,47.00
2019-01-04T02:06:40.224Z,44.27
2019-01-04T02:09:11.774Z,45.73
2019-01-04T02:11:45.379Z,49.90
2019-01-04T02:14:46.025Z,44.00
2019-01-04T02:17:15.751Z,46.77
2019-01-04T02:19:48.371Z,43.08
2019-01-04T02:22:20.915Z,43.10
2019-01-04T02:24:50.744Z,40.25
2019-01-04T02:27:22.966Z,43.98
2019-01-04T02:29:52.724Z,44.75
2019-01-04T02:32:24.951Z,50.12
2019-01-04T02:34:57.939Z,43.05
2019-01-04T02:37:27.731Z,55.45
2019-01-04T02:40:00.515Z,40.85
2019-01-04T02:42:32.964Z,45.08
2019-01-04T02:45:02.734Z,46.80
2019-01-04T02:47:35.532Z,51.90
2019-01-04T02:50:11.041Z,48.87
2019-01-04T02:52:43.600Z,58.10
2019-01-04T02:55:12.972Z,44.42
2019-01-04T02:57:45.834Z,46.90
2019-01-04T03:00:15.603Z,53.28
2019-01-04T03:02:48.461Z,59.38
2019-01-04T03:05:25.589Z,49.48
2019-01-04T03:07:58.187Z,55.50
2019-01-04T03:10:27.902Z,40.88
2019-01-04T03:12:58.839Z,48.08
2019-01-04T03:15:28.546Z,40.52
2019-01-04T03:17:59.932Z,38.67
2019-01-04T03:20:32.824Z,36.33
2019-01-04T03:23:02.516Z,42.60
2019-01-04T03:25:35.188Z,38.95
2019-01-04T03:28:22.051Z,36.95
2019-01-04T03:30:49.598Z,39.78
2019-01-04T03:33:22.393Z,44.23
2019-01-04T03:35:52.167Z,43.42
2019-01-04T03:38:23.481Z,43.17
2019-01-04T03:40:57.866Z,49.75
2019-01-04T03:43:25.129Z,43.70
2019-01-04T03:45:59.292Z,45.00
2019-01-04T03:48:33.434Z,45.23
2019-01-04T03:51:03.342Z,47.88
2019-01-04T03:53:35.823Z,57.15
2019-01-04T03:56:08.583Z,47.30
2019-01-04T03:58:38.279Z,52.40
2019-01-04T04:01:11.046Z,49.60
2019-01-04T04:03:40.823Z,55.40
2019-01-04T04:06:13.184Z,49.83
2019-01-04T04:08:45.892Z,52.88
2019-01-04T04:11:15.586Z,46.48
2019-01-04T04:13:48.173Z,53.87
2019-01-04T04:16:20.543Z,50.40
2019-01-04T04:18:50.317Z,50.73
2019-01-04T04:21:22.841Z,44.95
2019-01-04T04:23:52.636Z,45.20
2019-01-04T04:26:24.028Z,43.25
2019-01-04T04:28:57.048Z,49.42
2019-01-04T04:31:26.813Z,53.70
2019-01-04T04:34:34.461Z,51.92
2019-01-04T04:37:04.249Z,50.75
2019-01-04T04:39:36.909Z,49.90
2019-01-04T04:42:09.593Z,48.83
2019-01-04T04:44:39.301Z,47.55
2019-01-04T04:47:12.217Z,57.85
2019-01-04T04:49:45.237Z,48.17
2019-01-04T04:52:15.012Z,44.25
2019-01-04T04:54:48.122Z,47.73
2019-01-04T04:57:20.653Z,48.95
2019-01-04T04:59:50.348Z,55.05
2019-01-04T05:02:33.062Z,53.70
2019-01-04T05:05:09.532Z,59.08
2019-01-04T05:07:39.230Z,59.15
2019-01-04T05:10:12.677Z,50.95
2019-01-04T05:12:44.897Z,49.40
2019-01-04T05:15:14.633Z,57.85
2019-01-04T05:17:47.092Z,60.85
2019-01-04T05:20:16.807Z,56.00
2019-01-04T05:22:48.120Z,53.42
2019-01-04T05:25:21.915Z,58.83
2019-01-04T05:27:51.637Z,54.70
2019-01-04T05:30:24.665Z,48.40
2019-01-04T05:32:56.564Z,54.10
2019-01-04T05:35:26.269Z,54.27
2019-01-04T05:38:00.555Z,53.30
2019-01-04T05:40:33.533Z,52.58
2019-01-04T05:43:03.222Z,50.73
2019-01-04T05:45:36.458Z,49.75
2019-01-04T05:48:24.536Z,45.65
2019-01-04T05:50:57.452Z,49.80
2019-01-04T05:53:27.145Z,53.42
2019-01-04T05:55:59.339Z,45.17
2019-01-04T05:58:29.106Z,51.45
2019-01-04T06:01:01.836Z,50.48
2019-01-04T06:03:39.032Z,44.80
2019-01-04T06:06:11.912Z,50.43
2019-01-04T06:08:47.405Z,46.73
2019-01-04T06:11:17.138Z,52.62
2019-01-04T06:13:49.797Z,49.83
2019-01-04T06:16:25.285Z,43.42
2019-01-04T06:18:58.322Z,48.85
2019-01-04T06:21:28.184Z,42.15
2019-01-04T06:24:01.114Z,43.30
2019-01-04T06:26:33.597Z,55.30
2019-01-04T06:29:03.303Z,43.08
2019-01-04T06:31:36.494Z,54.45
2019-01-04T06:34:08.873Z,50.10
2019-01-04T06:36:38.597Z,47.00
2019-01-04T06:39:11.253Z,51.98
2019-01-04T06:41:40.962Z,44.05
2019-01-04T06:44:12.253Z,43.35
2019-01-04T06:47:22.340Z,55.88
2019-01-04T06:49:52.426Z,50.08
2019-01-04T06:52:23.967Z,60.52
2019-01-04T06:55:37.090Z,46.70
2019-01-04T06:58:09.654Z,49.63
2019-01-04T07:00:39.498Z,41.15
2019-01-04T07:03:12.422Z,56.20
2019-01-04T07:05:45.680Z,49.95
2019-01-04T07:08:15.389Z,49.38
2019-01-04T07:10:47.349Z,50.65
2019-01-04T07:13:17.132Z,53.90
2019-01-04T07:15:50.437Z,50.50
2019-01-04T07:18:22.944Z,58.85
2019-01-04T07:20:52.704Z,45.92
2019-01-04T07:23:24.053Z,54.55
2019-01-04T07:26:08.601Z,45.00
2019-01-04T07:28:38.292Z,49.58
2019-01-04T07:31:11.004Z,52.73
2019-01-04T07:33:40.770Z,51.68
2019-01-04T07:36:12.177Z,58.40
2019-01-04T07:38:44.623Z,55.00
2019-01-04T07:41:14.308Z,58.25
2019-01-04T07:43:46.845Z,54.38
2019-01-04T07:46:16.548Z,57.93
2019-01-04T07:48:48.176Z,67.12
2019-01-04T07:51:20.649Z,66.72
2019-01-04T07:53:50.492Z,62.73
2019-01-04T07:56:22.944Z,50.80
2019-01-04T07:58:52.690Z,49.35
2019-01-04T08:01:24.037Z,51.88
2019-01-04T08:03:59.046Z,57.78
2019-01-04T08:06:40.891Z,64.62
2019-01-04T08:09:12.198Z,48.83
2019-01-04T08:11:44.717Z,40.83
2019-01-04T08:14:14.425Z,39.98
2019-01-04T08:16:47.073Z,37.98
2019-01-04T08:19:16.769Z,32.27
2019-01-04T08:21:48.085Z,39.55
2019-01-04T08:24:20.293Z,36.88
2019-01-04T08:27:01.809Z,36.42
2019-01-04T08:29:34.916Z,35.80
2019-01-04T08:32:04.605Z,33.60
2019-01-04T08:34:35.607Z,35.27
2019-01-04T08:37:05.393Z,34.23
2019-01-04T08:39:37.734Z,32.07
2019-01-04T08:42:10.574Z,25.87
2019-01-04T08:44:50.538Z,33.97
2019-01-04T08:47:23.083Z,27.53
2019-01-04T08:49:52.761Z,31.40
2019-01-04T08:52:26.442Z,32.17
2019-01-04T08:54:58.963Z,30.53
2019-01-04T08:57:28.732Z,40.17
2019-01-04T09:00:08.360Z,37.00
2019-01-04T09:02:37.748Z,35.40
2019-01-04T09:05:10.750Z,34.03
2019-01-04T09:08:10.867Z,34.97
2019-01-04T09:10:40.787Z,30.57
2019-01-04T09:13:12.457Z,33.00
2019-01-04T09:15:49.761Z,29.60
2019-01-04T09:18:22.377Z,37.30
2019-01-04T09:20:52.053Z,34.23
2019-01-04T09:23:34.198Z,30.50
2019-01-04T09:26:01.729Z,35.93
2019-01-04T09:28:34.239Z,30.37
2019-01-04T09:31:04.090Z,31.37
2019-01-04T09:33:38.228Z,31.27
2019-01-04T09:36:21.109Z,33.63
2019-01-04T09:38:51.947Z,27.40
2019-01-04T09:41:37.441Z,28.30
2019-01-04T09:44:10.031Z,29.57
2019-01-04T09:46:39.713Z,29.33
2019-01-04T09:49:11.727Z,25.23
2019-01-04T09:51:41.919Z,30.83
2019-01-04T09:54:13.785Z,32.37
2019-01-04T09:56:46.767Z,27.57
2019-01-04T09:59:16.481Z,30.20
2019-01-04T10:02:16.401Z,35.60
2019-01-04T10:04:49.782Z,29.97
2019-01-04T10:07:22.776Z,27.47
2019-01-04T10:09:52.556Z,38.90
2019-01-04T10:12:25.073Z,34.63
2019-01-04T10:15:28.034Z,22.73
2019-01-04T10:18:01.539Z,24.00
2019-01-04T10:20:34.570Z,24.53
2019-01-04T10:23:04.312Z,24.77
2019-01-04T10:25:36.875Z,23.63
2019-01-04T10:28:09.960Z,25.03
2019-01-04T10:30:39.644Z,23.20
2019-01-04T10:33:12.954Z,22.20
2019-01-04T10:35:45.727Z,23.80
2019-01-04T10:38:15.449Z,23.50
2019-01-04T10:40:48.215Z,23.93
2019-01-04T10:43:22.458Z,20.43
2019-01-04T10:45:49.880Z,17.47
2019-01-04T10:48:24.251Z,16.90
2019-01-04T10:50:58.905Z,21.17
2019-01-04T10:53:56.691Z,17.07
2019-01-04T10:56:27.962Z,20.23
2019-01-04T10:59:00.596Z,18.50
2019-01-04T11:01:33.045Z,17.13
2019-01-04T11:04:02.744Z,15.10
2019-01-04T11:06:35.218Z,16.73
2019-01-04T11:09:11.081Z,25.10
2019-01-04T11:11:40.853Z,12.83
2019-01-04T11:14:16.699Z,16.00
2019-01-04T11:16:48.151Z,16.83
2019-01-04T11:19:17.813Z,15.03
2019-01-04T11:21:50.289Z,112.67
2019-01-04T11:25:03.437Z,38.23
2019-01-04T11:28:22.673Z,18.37
2019-01-04T11:31:23.104Z,24.00
2019-01-04T11:34:11.559Z,26.90
2019-01-04T11:37:10.287Z,22.40
2019-01-04T11:40:05.846Z,23.20
2019-01-04T11:43:13.112Z,19.47
2019-01-04T11:46:22.499Z,20.97
2019-01-04T11:49:14.165Z,22.93
2019-01-04T11:52:31.304Z,22.60
2019-01-04T11:55:02.114Z,29.73
2019-01-04T11:57:34.987Z,27.47
2019-01-04T12:00:05.942Z,19.03
2019-01-04T12:02:40.043Z,21.43
2019-01-04T12:05:12.900Z,20.60
2019-01-04T12:07:45.361Z,17.43
2019-01-04T12:10:23.969Z,19.57
2019-01-04T12:12:53.657Z,20.37
2019-01-04T12:15:24.957Z,16.87
2019-01-04T12:17:57.657Z,30.10
2019-01-04T12:20:27.468Z,14.47
2019-01-04T12:22:59.982Z,30.30
2019-01-04T12:25:29.775Z,23.43
2019-01-04T12:28:23.259Z,21.17
2019-01-04T12:30:50.127Z,24.13
2019-01-04T12:33:22.838Z,20.13
2019-01-04T12:35:52.637Z,22.60
2019-01-04T12:38:52.360Z,23.70
2019-01-04T12:41:24.154Z,19.10
2019-01-04T12:43:53.839Z,22.13
2019-01-04T12:46:26.377Z,23.13
2019-01-04T12:49:29.166Z,24.17
2019-01-04T12:52:00.227Z,21.43
2019-01-04T12:54:47.217Z,24.10
2019-01-04T12:57:14.668Z,37.00
2019-01-04T12:59:47.174Z,35.73
2019-01-04T13:02:16.881Z,32.87
2019-01-04T13:04:52.410Z,31.60
2019-01-04T13:07:25.775Z,24.30
2019-01-04T13:09:57.544Z,25.77
2019-01-04T13:12:27.245Z,22.40
2019-01-04T13:15:01.236Z,23.20
2019-01-04T13:17:34.097Z,27.00
2019-01-04T13:20:03.957Z,22.37
2019-01-04T13:22:51.805Z,18.90
2019-01-04T13:25:24.981Z,22.77
2019-01-04T13:28:15.984Z,25.43
2019-01-04T13:30:49.186Z,19.10
2019-01-04T13:33:22.001Z,23.50
2019-01-04T13:35:51.696Z,23.90
2019-01-04T13:38:24.168Z,19.80
2019-01-04T13:40:53.937Z,21.50
2019-01-04T13:43:26.309Z,22.00
2019-01-04T13:45:59.074Z,21.90
2019-01-04T13:48:28.773Z,18.43
2019-01-04T13:51:36.817Z,20.13
2019-01-04T13:54:13.222Z,16.80
2019-01-04T13:56:38.323Z,21.20
2019-01-04T13:59:12.087Z,20.90
2019-01-04T14:01:41.797Z,22.67
2019-01-04T14:04:13.176Z,19.87
2019-01-04T14:06:48.776Z,31.37
2019-01-04T14:09:21.698Z,23.63
2019-01-04T14:11:50.980Z,23.23
2019-01-04T14:14:23.539Z,22.37
2019-01-04T14:16:53.196Z,24.97
2019-01-04T14:19:26.353Z,29.60
2019-01-04T14:21:59.998Z,24.67
2019-01-04T14:24:29.854Z,27.13
2019-01-04T14:27:01.234Z,22.63
2019-01-04T14:29:34.306Z,23.27
2019-01-04T14:32:04.201Z,23.20
2019-01-04T14:34:36.439Z,19.10
2019-01-04T14:37:06.210Z,21.07
2019-01-04T14:39:39.605Z,24.50
2019-01-04T14:42:12.247Z,20.57
2019-01-04T14:44:41.966Z,20.37
2019-01-04T14:47:13.313Z,25.27
2019-01-04T14:49:46.682Z,19.33
2019-01-04T14:52:16.376Z,24.63
2019-01-04T14:54:49.371Z,245.23
2019-01-04T14:57:22.038Z,177.37
2019-01-04T14:59:51.749Z,42.43
2019-01-04T15:02:24.155Z,27.47
2019-01-04T15:04:53.922Z,24.77
2019-01-04T15:07:25.282Z,25.33
2019-01-04T15:10:02.346Z,18.53
2019-01-04T15:12:36.180Z,23.47
2019-01-04T15:15:06.264Z,24.23
2019-01-04T15:17:38.889Z,23.17
2019-01-04T15:20:12.116Z,23.43
2019-01-04T15:22:41.787Z,23.70
2019-01-04T15:25:13.174Z,22.43
2019-01-04T15:27:50.368Z,28.73
2019-01-04T15:30:22.854Z,18.00
2019-01-04T15:32:52.533Z,19.20
2019-01-04T15:35:25.789Z,18.33
2019-01-04T15:38:04.743Z,19.97
2019-01-04T15:40:37.734Z,30.57
2019-01-04T15:43:10.202Z,23.97
2019-01-04T15:45:39.990Z,35.40
2019-01-04T15:48:21.268Z,28.20
2019-01-04T15:50:50.559Z,27.27
2019-01-04T15:53:23.736Z,24.63
2019-01-04T15:55:53.450Z,34.98
2019-01-04T15:58:25.944Z,22.82
2019-01-04T16:00:57.948Z,76.12
2019-01-04T16:03:27.794Z,33.80
2019-01-04T16:06:00.290Z,30.10
2019-01-04T16:08:29.987Z,24.15
2019-01-04T16:11:01.329Z,24.27
2019-01-04T16:13:33.753Z,19.70
2019-01-04T16:16:03.489Z,20.72
2019-01-04T16:18:36.061Z,44.10
2019-01-04T16:21:05.755Z,65.08
2019-01-04T16:23:38.208Z,125.10
2019-01-04T16:26:10.421Z,164.52
2019-01-04T16:28:40.187Z,71.47
2019-01-04T16:31:16.013Z,207.83
2019-01-04T16:33:48.428Z,108.03
2019-01-04T16:36:18.213Z,51.37
2019-01-04T16:38:49.509Z,38.97
2019-01-04T16:41:22.385Z,29.63
2019-01-04T16:43:52.078Z,34.18
2019-01-04T16:46:24.688Z,30.63
2019-01-04T16:48:54.524Z,24.70
2019-01-04T16:51:27.243Z,32.50
2019-01-04T16:54:14.525Z,25.37
2019-01-04T16:56:38.727Z,25.60
2019-01-04T16:59:11.979Z,35.17
2019-01-04T17:01:41.937Z,33.18
2019-01-04T17:04:13.414Z,29.92
2019-01-04T17:06:50.048Z,26.43
2019-01-04T17:09:24.208Z,29.65
2019-01-04T17:11:53.913Z,30.30
2019-01-04T17:14:26.414Z,27.60
2019-01-04T17:16:58.882Z,29.53
2019-01-04T17:19:28.551Z,23.43
2019-01-04T17:22:11.157Z,27.33
2019-01-04T17:24:41.176Z,23.37
2019-01-04T17:27:13.942Z,26.27
2019-01-04T17:29:46.312Z,20.57
2019-01-04T17:32:16.032Z,24.72
2019-01-04T17:34:48.529Z,18.90
2019-01-04T17:37:18.223Z,23.25
2019-01-04T17:39:49.537Z,21.90
2019-01-04T17:42:22.147Z,35.33
2019-01-04T17:44:51.840Z,29.77
2019-01-04T17:47:24.640Z,26.07
2019-01-04T17:49:54.330Z,30.30
2019-01-04T17:52:47.357Z,22.90
2019-01-04T17:55:17.040Z,22.83
2019-01-04T17:57:49.612Z,27.50
2019-01-04T18:00:50.072Z,31.67
2019-01-04T18:03:24.202Z,23.03
2019-01-04T18:05:53.893Z,28.23
2019-01-04T18:08:24.985Z,27.07
2019-01-04T18:10:54.752Z,27.67
2019-01-04T18:13:27.305Z,23.73
2019-01-04T18:15:59.260Z,26.43
2019-01-04T18:18:28.983Z,22.85
2019-01-04T18:21:11.453Z,27.60
2019-01-04T18:23:41.150Z,25.85
2019-01-04T18:26:14.067Z,22.03
2019-01-04T18:28:59.365Z,24.45
2019-01-04T18:31:29.094Z,24.00
2019-01-04T18:34:01.853Z,23.97
2019-01-04T18:36:34.354Z,27.23
2019-01-04T18:39:05.936Z,27.30
2019-01-04T18:41:53.870Z,26.50
2019-01-04T18:44:26.796Z,28.27
2019-01-04T18:46:59.796Z,30.05
2019-01-04T18:49:29.484Z,27.02
2019-01-04T18:52:02.840Z,24.18
2019-01-04T18:54:35.811Z,29.10
2019-01-04T18:57:05.599Z,31.83
2019-01-04T18:59:50.407Z,31.27
2019-01-04T19:02:22.636Z,30.10
2019-01-04T19:04:52.321Z,28.17
2019-01-04T19:07:24.812Z,28.70
2019-01-04T19:09:54.636Z,29.42
2019-01-04T19:12:26.040Z,27.60
2019-01-04T19:15:34.993Z,28.80
2019-01-04T19:18:04.928Z,28.62
2019-01-04T19:20:37.488Z,30.10
2019-01-04T19:23:11.985Z,27.48
2019-01-04T19:25:39.077Z,31.45
2019-01-04T19:28:11.529Z,30.77
2019-01-04T19:30:42.289Z,33.63
2019-01-04T19:33:13.597Z,34.03
2019-01-04T19:35:46.482Z,32.78
2019-01-04T19:38:16.177Z,39.25
2019-01-04T19:40:50.432Z,30.40
2019-01-04T19:43:22.533Z,35.33
2019-01-04T19:45:52.292Z,36.35
2019-01-04T19:48:40.215Z,30.48
2019-01-04T19:51:14.301Z,35.60
2019-01-04T19:53:46.532Z,38.27
2019-01-04T19:56:16.216Z,33.33
2019-01-04T19:58:48.493Z,28.83
2019-01-04T20:01:24.395Z,33.08
2019-01-04T20:03:54.135Z,29.50
2019-01-04T20:07:12.105Z,27.17
2019-01-04T20:13:59.177Z,30.77
2019-01-04T20:17:00.894Z,30.60
2019-01-04T20:19:48.812Z,30.95
2019-01-04T20:22:36.188Z,28.87
2019-01-04T20:25:27.878Z,24.30
2019-01-04T20:28:34.631Z,27.30
2019-01-04T20:31:23.560Z,28.73
2019-01-04T20:34:36.730Z,28.12
2019-01-04T20:37:24.592Z,25.62
2019-01-04T20:40:23.655Z,25.65
2019-01-04T20:43:15.057Z,26.97
2019-01-04T20:46:06.206Z,27.37
2019-01-04T20:49:00.829Z,24.70
2019-01-04T20:51:54.701Z,25.33
2019-01-04T20:54:42.849Z,29.43
2019-01-04T21:00:40.950Z,35.73
2019-01-04T21:03:36.296Z,33.43
2019-01-04T21:09:26.693Z,31.15
2019-01-04T21:12:11.625Z,38.33
2019-01-04T21:15:10.689Z,36.63
2019-01-04T21:18:24.258Z,33.92
2019-01-04T21:21:13.832Z,38.15
2019-01-04T21:24:11.156Z,60.83
2019-01-04T21:27:06.787Z,40.45
2019-01-04T21:36:00.734Z,34.23
2019-01-04T21:38:48.176Z,32.42
2019-01-04T21:44:59.250Z,34.50
2019-01-04T21:47:46.956Z,41.05
2019-01-04T21:50:36.238Z,36.35
2019-01-04T21:53:23.752Z,36.65
2019-01-04T21:56:15.348Z,34.20
2019-01-04T22:02:23.007Z,41.70
2019-01-04T22:05:23.880Z,37.75
2019-01-04T22:08:17.415Z,32.88
2019-01-04T22:11:18.898Z,33.02
2019-01-04T22:14:23.352Z,30.35
2019-01-04T22:17:07.343Z,27.07
2019-01-04T22:22:52.705Z,31.95
2019-01-04T22:25:59.498Z,29.60
2019-01-04T22:28:55.221Z,28.30
2019-01-04T22:31:46.902Z,29.23
2019-01-04T22:34:35.706Z,25.20
2019-01-04T22:37:23.511Z,23.90
2019-01-04T22:40:15.409Z,28.05
2019-01-04T22:46:11.733Z,23.57
2019-01-04T22:49:12.330Z,23.37
2019-01-04T22:51:59.805Z,21.67
2019-01-04T22:54:59.892Z,20.65
2019-01-04T22:57:59.192Z,22.52
2019-01-04T23:00:46.742Z,21.33
2019-01-04T23:03:37.551Z,20.90
2019-01-04T23:09:47.601Z,21.48
2019-01-04T23:12:48.702Z,20.25
2019-01-04T23:15:36.101Z,20.75
2019-01-04T23:18:23.358Z,20.10
2019-01-04T23:21:13.788Z,18.60
2019-01-04T23:24:19.124Z,19.70
2019-01-04T23:27:11.040Z,17.95
2019-01-04T23:30:00.969Z,18.85
2019-01-04T23:35:38.538Z,19.17
2019-01-04T23:38:24.041Z,22.27
2019-01-04T23:41:24.213Z,22.05
2019-01-04T23:44:28.307Z,23.00
2019-01-04T23:47:19.108Z,23.87
2019-01-04T23:53:24.335Z,20.43
2019-01-04T23:56:13.162Z,23.13
2019-01-04T23:59:00.869Z,22.55
